Time;durP1;ratioP1;P1;durP2;ratioP2;P2;SDS_P1;SDS_P2;PMS_P1;PMS_P2;Temp;Humidity;BMP_temperature;BMP_pressure;BME280_temperature;BME280_humidity;BME280_pressure;Samples;Min_cycle;Max_cycle;Signal;HPM_P1;HPM_P2
2023/06/18 00:00:31;;;;;;;14.00;12.17;;;;;;;;;;5079951;28;20181;-65
2023/06/18 00:02:57;;;;;;;15.17;13.07;;;;;;;;;;5079523;28;20184;-65
2023/06/18 00:05:23;;;;;;;14.47;11.20;;;;;;;;;;5079454;28;20178;-65
2023/06/18 00:07:49;;;;;;;17.60;11.83;;;;;;;;;;5061658;28;20198;-65
2023/06/18 00:10:15;;;;;;;15.00;10.57;;;;;;;;;;5075443;28;20576;-65
2023/06/18 00:12:41;;;;;;;17.97;12.43;;;;;;;;;;5076987;28;20598;-65
2023/06/18 00:15:07;;;;;;;14.43;11.53;;;;;;;;;;5076598;28;20177;-65
2023/06/18 00:17:33;;;;;;;16.70;11.83;;;;;;;;;;5076133;28;20280;-65
2023/06/18 00:19:59;;;;;;;14.50;11.80;;;;;;;;;;5076431;28;20228;-65
2023/06/18 00:22:26;;;;;;;19.77;12.50;;;;;;;;;;5076723;28;20181;-65
2023/06/18 00:24:52;;;;;;;15.60;12.17;;;;;;;;;;5076914;28;20315;-65
2023/06/18 00:27:20;;;;;;;15.57;11.87;;;;;;;;;;5076164;28;20217;-65
2023/06/18 00:29:47;;;;;;;14.37;12.77;;;;;;;;;;5076046;28;20647;-64
2023/06/18 00:32:13;;;;;;;13.80;12.40;;;;;;;;;;5075960;28;20198;-63
2023/06/18 00:34:41;;;;;;;19.80;12.80;;;;;;;;;;5076006;28;20173;-64
2023/06/18 00:37:09;;;;;;;13.83;11.23;;;;;;;;;;5076679;28;20280;-65
2023/06/18 00:39:36;;;;;;;16.90;11.80;;;;;;;;;;5077183;28;20170;-64
2023/06/18 00:42:02;;;;;;;15.80;11.43;;;;;;;;;;5076799;28;20178;-65
2023/06/18 00:44:28;;;;;;;12.80;10.70;;;;;;;;;;5076232;28;20181;-67
2023/06/18 00:46:56;;;;;;;12.97;11.30;;;;;;;;;;5075607;28;20220;-66
2023/06/18 00:49:22;;;;;;;13.27;11.87;;;;;;;;;;5057703;28;20785;-66
2023/06/18 00:51:48;;;;;;;13.60;12.20;;;;;;;;;;5076139;28;20229;-65
2023/06/18 00:54:15;;;;;;;15.17;11.20;;;;;;;;;;5076227;28;20174;-66
2023/06/18 00:56:50;;;;;;;14.67;11.50;;;;;;;;;;5075703;28;20280;-67
2023/06/18 00:59:22;;;;;;;15.90;12.33;;;;;;;;;;5075933;28;20248;-64
2023/06/18 01:01:49;;;;;;;13.23;11.30;;;;;;;;;;5076104;28;20158;-64
2023/06/18 01:04:15;;;;;;;12.97;11.63;;;;;;;;;;5057671;28;20662;-65
2023/06/18 01:06:41;;;;;;;13.37;11.97;;;;;;;;;;5075960;28;20201;-66
2023/06/18 01:09:08;;;;;;;14.90;11.57;;;;;;;;;;5076368;28;20227;-66
2023/06/18 01:11:40;;;;;;;17.37;11.53;;;;;;;;;;5075461;28;20202;-66
2023/06/18 01:14:09;;;;;;;15.10;11.73;;;;;;;;;;5075605;28;20169;-66
2023/06/18 01:16:36;;;;;;;15.40;10.77;;;;;;;;;;5075105;28;20284;-66
2023/06/18 01:19:03;;;;;;;16.63;11.43;;;;;;;;;;5075283;28;20177;-66
2023/06/18 01:21:31;;;;;;;17.37;11.00;;;;;;;;;;5075197;28;20170;-65
2023/06/18 01:24:08;;;;;;;14.43;11.63;;;;;;;;;;5075540;28;20182;-66
2023/06/18 01:26:35;;;;;;;13.47;10.67;;;;;;;;;;5075187;28;20216;-64
2023/06/18 01:29:01;;;;;;;16.67;11.20;;;;;;;;;;5075674;28;20223;-64
2023/06/18 01:31:36;;;;;;;13.67;11.57;;;;;;;;;;5074882;28;20197;-63
2023/06/18 01:34:04;;;;;;;15.67;11.87;;;;;;;;;;5075187;28;20165;-63
2023/06/18 01:36:34;;;;;;;17.50;11.40;;;;;;;;;;5075029;28;20257;-63
2023/06/18 01:39:10;;;;;;;14.97;10.97;;;;;;;;;;5075081;28;20162;-64
2023/06/18 01:41:37;;;;;;;14.07;11.20;;;;;;;;;;5074915;28;20169;-65
2023/06/18 01:44:06;;;;;;;14.07;10.80;;;;;;;;;;5074535;28;20181;-65
2023/06/18 01:46:32;;;;;;;12.67;11.37;;;;;;;;;;5074423;28;20170;-64
2023/06/18 01:49:00;;;;;;;13.73;10.53;;;;;;;;;;5074513;28;20189;-64
2023/06/18 01:51:27;;;;;;;12.47;10.60;;;;;;;;;;5074826;28;20694;-64
2023/06/18 01:53:55;;;;;;;13.03;10.90;;;;;;;;;;5074382;28;20648;-65
2023/06/18 01:56:22;;;;;;;12.20;10.97;;;;;;;;;;5074214;28;20174;-64
2023/06/18 01:58:50;;;;;;;11.57;10.37;;;;;;;;;;5074453;28;20202;-64
2023/06/18 02:01:16;;;;;;;12.90;10.67;;;;;;;;;;5074241;28;20182;-65
2023/06/18 02:03:42;;;;;;;14.60;10.67;;;;;;;;;;5074604;28;20174;-65
2023/06/18 02:06:08;;;;;;;14.77;10.43;;;;;;;;;;5055994;28;20224;-64
2023/06/18 02:08:34;;;;;;;13.60;10.90;;;;;;;;;;5056063;28;20233;-64
2023/06/18 02:11:00;;;;;;;15.63;11.03;;;;;;;;;;5073988;28;20202;-65
2023/06/18 02:13:26;;;;;;;11.83;10.53;;;;;;;;;;5074436;28;20709;-64
2023/06/18 02:15:52;;;;;;;11.17;9.97;;;;;;;;;;5056160;28;20195;-65
2023/06/18 02:18:18;;;;;;;12.10;10.47;;;;;;;;;;5074225;28;20225;-65
2023/06/18 02:20:44;;;;;;;13.83;10.43;;;;;;;;;;5074027;28;20173;-65
2023/06/18 02:23:10;;;;;;;14.70;11.27;;;;;;;;;;5074056;28;20177;-65
2023/06/18 02:25:36;;;;;;;14.77;11.67;;;;;;;;;;5074345;28;20185;-65
2023/06/18 02:28:03;;;;;;;14.97;10.90;;;;;;;;;;5073431;28;20711;-64
2023/06/18 02:30:29;;;;;;;12.93;10.53;;;;;;;;;;5078141;28;20288;-63
2023/06/18 02:32:58;;;;;;;12.67;10.47;;;;;;;;;;5078022;28;20182;-63
2023/06/18 02:35:25;;;;;;;15.37;10.73;;;;;;;;;;5077094;28;20216;-63
2023/06/18 02:37:51;;;;;;;11.33;9.80;;;;;;;;;;5076389;28;20729;-64
2023/06/18 02:40:17;;;;;;;13.10;10.10;;;;;;;;;;5076997;28;20174;-62
2023/06/18 02:42:47;;;;;;;12.70;9.67;;;;;;;;;;5077160;28;20256;-63
2023/06/18 02:45:24;;;;;;;11.00;9.13;;;;;;;;;;5058747;28;20185;-63
2023/06/18 02:47:50;;;;;;;12.43;9.30;;;;;;;;;;5077720;28;20189;-63
2023/06/18 02:50:17;;;;;;;11.43;9.70;;;;;;;;;;5080569;28;20189;-63
2023/06/18 02:52:43;;;;;;;10.90;9.47;;;;;;;;;;5080837;28;20174;-63
2023/06/18 02:55:10;;;;;;;10.77;9.53;;;;;;;;;;5081079;28;20170;-63
2023/06/18 02:57:37;;;;;;;13.27;9.57;;;;;;;;;;5080578;28;20671;-64
2023/06/18 03:00:09;;;;;;;9.77;8.77;;;;;;;;;;5081570;28;20189;-63
2023/06/18 03:02:35;;;;;;;12.23;9.43;;;;;;;;;;5063170;28;20231;-64
2023/06/18 03:05:01;;;;;;;11.63;9.17;;;;;;;;;;5080809;28;20615;-63
2023/06/18 03:07:27;;;;;;;11.93;9.27;;;;;;;;;;5062560;28;20197;-63
2023/06/18 03:09:53;;;;;;;10.40;9.40;;;;;;;;;;5080809;28;20178;-63
2023/06/18 03:12:19;;;;;;;12.20;9.03;;;;;;;;;;5081072;28;20209;-63
2023/06/18 03:14:45;;;;;;;12.90;8.80;;;;;;;;;;5082678;28;20283;-63
2023/06/18 03:17:11;;;;;;;10.50;9.37;;;;;;;;;;5063451;28;20219;-63
2023/06/18 03:19:37;;;;;;;13.07;8.97;;;;;;;;;;5081505;28;20269;-63
2023/06/18 03:22:05;;;;;;;11.93;9.30;;;;;;;;;;5081035;28;20192;-64
2023/06/18 03:24:32;;;;;;;14.50;9.80;;;;;;;;;;5081651;28;20185;-63
2023/06/18 03:26:58;;;;;;;13.73;9.30;;;;;;;;;;5081261;28;20709;-63
2023/06/18 03:29:30;;;;;;;12.60;9.23;;;;;;;;;;5062848;28;20655;-63
2023/06/18 03:31:57;;;;;;;11.80;9.40;;;;;;;;;;5078060;28;20201;-63
2023/06/18 03:34:23;;;;;;;13.40;9.47;;;;;;;;;;5081080;28;20177;-63
2023/06/18 03:36:49;;;;;;;13.40;9.87;;;;;;;;;;5061129;28;20190;-63
2023/06/18 03:39:16;;;;;;;13.60;8.90;;;;;;;;;;5077588;28;20208;-63
2023/06/18 03:41:42;;;;;;;10.83;9.27;;;;;;;;;;5077905;28;20213;-64
2023/06/18 03:44:09;;;;;;;13.70;8.77;;;;;;;;;;5079224;28;20181;-63
2023/06/18 03:46:35;;;;;;;14.40;9.37;;;;;;;;;;5081276;28;20197;-63
2023/06/18 03:49:01;;;;;;;12.50;9.10;;;;;;;;;;5064230;28;20178;-63
2023/06/18 03:51:27;;;;;;;10.70;9.57;;;;;;;;;;5063890;28;20209;-63
2023/06/18 03:53:53;;;;;;;10.67;9.50;;;;;;;;;;5081340;28;20174;-63
2023/06/18 03:56:19;;;;;;;10.70;8.80;;;;;;;;;;5081786;28;20181;-63
2023/06/18 03:58:46;;;;;;;14.17;9.23;;;;;;;;;;5063351;28;20181;-64
2023/06/18 04:01:12;;;;;;;10.27;8.50;;;;;;;;;;5082012;28;20668;-64
2023/06/18 04:03:38;;;;;;;12.50;8.83;;;;;;;;;;5081756;28;20249;-63
2023/06/18 04:06:04;;;;;;;9.87;8.77;;;;;;;;;;5063528;28;20186;-63
2023/06/18 04:08:30;;;;;;;12.20;8.77;;;;;;;;;;5081576;28;20205;-63
2023/06/18 04:10:58;;;;;;;10.40;8.73;;;;;;;;;;5081332;28;20209;-64
2023/06/18 04:13:24;;;;;;;9.53;8.53;;;;;;;;;;5081523;28;20260;-65
2023/06/18 04:15:50;;;;;;;12.33;8.33;;;;;;;;;;5062214;28;20208;-64
2023/06/18 04:18:16;;;;;;;11.57;9.00;;;;;;;;;;5081126;28;20224;-63
2023/06/18 04:20:42;;;;;;;13.03;8.90;;;;;;;;;;5063230;28;20186;-64
2023/06/18 04:23:08;;;;;;;11.77;8.73;;;;;;;;;;5081226;28;20210;-64
2023/06/18 04:25:34;;;;;;;9.27;8.20;;;;;;;;;;5081719;28;20208;-64
2023/06/18 04:28:01;;;;;;;10.77;8.17;;;;;;;;;;5080584;28;20214;-64
2023/06/18 04:30:27;;;;;;;13.13;8.37;;;;;;;;;;5062444;28;20182;-64
2023/06/18 04:32:53;;;;;;;10.87;8.70;;;;;;;;;;5062674;28;20555;-64
2023/06/18 04:35:19;;;;;;;9.53;8.53;;;;;;;;;;5062379;28;20189;-66
2023/06/18 04:37:45;;;;;;;10.00;8.80;;;;;;;;;;5080822;28;20194;-64
2023/06/18 04:40:12;;;;;;;10.90;8.73;;;;;;;;;;5079755;28;20176;-64
2023/06/18 04:42:38;;;;;;;10.27;8.80;;;;;;;;;;5085005;22;20174;-66
2023/06/18 04:45:04;;;;;;;9.43;8.50;;;;;;;;;;5073840;28;20229;-67
2023/06/18 04:47:32;;;;;;;12.57;10.20;;;;;;;;;;5075503;28;20711;-67
2023/06/18 04:49:58;;;;;;;11.83;8.67;;;;;;;;;;5075275;28;20661;-68
2023/06/18 04:52:24;;;;;;;13.43;9.50;;;;;;;;;;5074088;28;20213;-68
2023/06/18 04:54:52;;;;;;;11.53;7.90;;;;;;;;;;5073742;28;20194;-67
2023/06/18 04:57:19;;;;;;;10.80;9.52;;;;;;;;;;5072743;28;20414;-67
2023/06/18 04:59:46;;;;;;;14.70;9.50;;;;;;;;;;5074070;28;20391;-67
2023/06/18 05:02:12;;;;;;;11.27;9.07;;;;;;;;;;5074962;28;20178;-67
2023/06/18 05:04:39;;;;;;;9.30;8.33;;;;;;;;;;5075214;28;20269;-68
2023/06/18 05:07:05;;;;;;;10.53;8.80;;;;;;;;;;5073720;28;20185;-66
2023/06/18 05:09:31;;;;;;;10.27;8.53;;;;;;;;;;5074992;28;20224;-66
2023/06/18 05:11:57;;;;;;;12.70;9.40;;;;;;;;;;5073587;28;20210;-66
2023/06/18 05:14:23;;;;;;;11.53;8.87;;;;;;;;;;5074576;28;20194;-64
2023/06/18 05:16:49;;;;;;;11.33;8.80;;;;;;;;;;5077720;28;20203;-65
2023/06/18 05:19:15;;;;;;;12.27;9.00;;;;;;;;;;5078519;28;20176;-64
2023/06/18 05:21:41;;;;;;;15.07;9.00;;;;;;;;;;5073978;28;20276;-64
2023/06/18 05:24:07;;;;;;;9.93;8.53;;;;;;;;;;5073516;28;20270;-67
2023/06/18 05:26:33;;;;;;;9.57;8.50;;;;;;;;;;5073723;28;20219;-66
2023/06/18 05:28:59;;;;;;;13.00;9.17;;;;;;;;;;5075119;28;20189;-66
2023/06/18 05:31:27;;;;;;;11.90;8.97;;;;;;;;;;5074769;28;20205;-67
2023/06/18 05:33:53;;;;;;;12.80;8.63;;;;;;;;;;5074588;28;20217;-66
2023/06/18 05:36:22;;;;;;;10.40;8.60;;;;;;;;;;5073277;28;20263;-66
2023/06/18 05:38:48;;;;;;;10.20;9.10;;;;;;;;;;5074528;28;20632;-66
2023/06/18 05:41:14;;;;;;;11.50;9.60;;;;;;;;;;5074866;28;20186;-67
2023/06/18 05:43:40;;;;;;;11.03;9.23;;;;;;;;;;5072957;28;20221;-66
2023/06/18 05:46:06;;;;;;;10.23;8.67;;;;;;;;;;5073543;28;20188;-66
2023/06/18 05:48:32;;;;;;;10.40;8.97;;;;;;;;;;5075257;28;20178;-68
2023/06/18 05:50:58;;;;;;;9.97;8.97;;;;;;;;;;5075404;28;20655;-66
2023/06/18 05:53:24;;;;;;;10.47;9.50;;;;;;;;;;5073935;28;20567;-66
2023/06/18 05:55:50;;;;;;;10.37;9.30;;;;;;;;;;5075280;28;20170;-68
2023/06/18 05:58:16;;;;;;;10.37;8.37;;;;;;;;;;5074532;28;20273;-68
2023/06/18 06:00:42;;;;;;;9.20;8.30;;;;;;;;;;5072948;28;20215;-68
2023/06/18 06:03:09;;;;;;;12.00;8.73;;;;;;;;;;5074203;28;20237;-68
2023/06/18 06:05:35;;;;;;;13.17;8.83;;;;;;;;;;5074342;28;20188;-68
2023/06/18 06:08:01;;;;;;;14.77;8.50;;;;;;;;;;5073395;28;20196;-68
2023/06/18 06:10:27;;;;;;;10.67;8.70;;;;;;;;;;5073931;28;20232;-66
2023/06/18 06:12:54;;;;;;;12.60;8.73;;;;;;;;;;5072690;28;20197;-66
2023/06/18 06:15:20;;;;;;;16.07;9.50;;;;;;;;;;5072492;28;20670;-66
2023/06/18 06:17:46;;;;;;;9.07;8.10;;;;;;;;;;5073630;28;20174;-66
2023/06/18 06:20:12;;;;;;;14.43;9.03;;;;;;;;;;5073959;28;20181;-66
2023/06/18 06:22:38;;;;;;;11.03;9.17;;;;;;;;;;5073499;28;20177;-68
2023/06/18 06:25:04;;;;;;;12.13;7.87;;;;;;;;;;5073579;28;20594;-66
2023/06/18 06:27:30;;;;;;;12.17;7.83;;;;;;;;;;5072339;28;20193;-66
2023/06/18 06:29:59;;;;;;;9.43;8.30;;;;;;;;;;5073357;28;20182;-68
2023/06/18 06:32:25;;;;;;;10.13;8.10;;;;;;;;;;5072142;28;20213;-68
2023/06/18 06:34:51;;;;;;;9.23;8.30;;;;;;;;;;5073273;28;20532;-66
2023/06/18 06:37:17;;;;;;;11.93;8.17;;;;;;;;;;5073852;28;20674;-68
2023/06/18 06:39:42;;;;;;;9.17;7.97;;;;;;;;;;5074440;28;20209;-68
2023/06/18 06:42:10;;;;;;;16.40;8.40;;;;;;;;;;5074560;28;20178;-68
2023/06/18 06:44:36;;;;;;;10.47;8.80;;;;;;;;;;5073361;28;20206;-68
2023/06/18 06:47:02;;;;;;;10.07;8.57;;;;;;;;;;5073794;28;20185;-65
2023/06/18 06:49:28;;;;;;;10.03;8.13;;;;;;;;;;5072395;28;20184;-66
2023/06/18 06:51:54;;;;;;;11.00;7.70;;;;;;;;;;5073432;28;20250;-66
2023/06/18 06:54:20;;;;;;;8.80;7.90;;;;;;;;;;5071968;28;20189;-66
2023/06/18 06:56:46;;;;;;;8.40;7.40;;;;;;;;;;5071746;28;20647;-66
2023/06/18 06:59:12;;;;;;;10.23;7.77;;;;;;;;;;5071892;28;20644;-68
2023/06/18 07:01:43;;;;;;;18.83;7.77;;;;;;;;;;5073302;28;20273;-66
2023/06/18 07:04:09;;;;;;;9.30;7.87;;;;;;;;;;5073135;28;20216;-66
2023/06/18 07:06:38;;;;;;;8.20;7.40;;;;;;;;;;5072203;28;20182;-66
2023/06/18 07:09:04;;;;;;;10.73;7.23;;;;;;;;;;5072330;28;20181;-66
2023/06/18 07:11:30;;;;;;;8.23;7.00;;;;;;;;;;5073514;28;20202;-66
2023/06/18 07:13:56;;;;;;;8.00;7.20;;;;;;;;;;5072405;28;20742;-67
2023/06/18 07:16:22;;;;;;;8.90;6.87;;;;;;;;;;5072622;28;20243;-66
2023/06/18 07:18:48;;;;;;;9.10;6.93;;;;;;;;;;5075737;28;20174;-66
2023/06/18 07:21:14;;;;;;;8.80;7.50;;;;;;;;;;5077187;28;20224;-67
2023/06/18 07:23:40;;;;;;;10.90;7.60;;;;;;;;;;5077042;28;20243;-67
2023/06/18 07:26:06;;;;;;;10.27;7.23;;;;;;;;;;5077438;28;20256;-66
2023/06/18 07:28:32;;;;;;;10.83;7.47;;;;;;;;;;5077187;28;20562;-67
2023/06/18 07:30:58;;;;;;;8.40;7.13;;;;;;;;;;5077122;28;20201;-66
2023/06/18 07:33:24;;;;;;;10.33;7.73;;;;;;;;;;5077110;28;20198;-66
2023/06/18 07:35:50;;;;;;;9.30;7.40;;;;;;;;;;5079153;28;20307;-67
2023/06/18 07:38:16;;;;;;;11.13;7.40;;;;;;;;;;5076863;28;20170;-66
2023/06/18 07:40:41;;;;;;;11.23;7.17;;;;;;;;;;5077172;28;20656;-66
2023/06/18 07:43:09;;;;;;;9.90;7.67;;;;;;;;;;5076921;28;20224;-66
2023/06/18 07:45:35;;;;;;;10.20;7.23;;;;;;;;;;5076951;28;20656;-66
2023/06/18 07:48:01;;;;;;;8.40;7.60;;;;;;;;;;5076982;28;20640;-67
2023/06/18 07:50:27;;;;;;;10.13;7.23;;;;;;;;;;5075650;28;20181;-66
2023/06/18 07:52:53;;;;;;;9.97;7.73;;;;;;;;;;5075378;28;20571;-66
2023/06/18 07:55:19;;;;;;;7.83;7.07;;;;;;;;;;5076447;28;20178;-67
2023/06/18 07:57:45;;;;;;;7.80;7.10;;;;;;;;;;5076349;28;20198;-67
2023/06/18 08:00:11;;;;;;;10.77;7.50;;;;;;;;;;5076545;28;20636;-66
2023/06/18 08:02:37;;;;;;;12.07;7.47;;;;;;;;;;5076909;28;20178;-67
2023/06/18 08:05:03;;;;;;;8.13;7.33;;;;;;;;;;5076518;28;20227;-66
2023/06/18 08:07:29;;;;;;;10.10;7.00;;;;;;;;;;5076293;28;20221;-66
2023/06/18 08:09:55;;;;;;;9.77;7.43;;;;;;;;;;5076291;28;20209;-66
2023/06/18 08:12:21;;;;;;;11.83;7.30;;;;;;;;;;5074929;28;20739;-67
2023/06/18 08:14:47;;;;;;;9.07;7.43;;;;;;;;;;5076097;28;20694;-66
2023/06/18 08:17:16;;;;;;;9.07;7.40;;;;;;;;;;5074611;28;20207;-66
2023/06/18 08:19:45;;;;;;;10.70;7.67;;;;;;;;;;5074679;28;20178;-66
2023/06/18 08:22:17;;;;;;;7.80;7.10;;;;;;;;;;5076208;28;20178;-67
2023/06/18 08:24:43;;;;;;;10.53;7.57;;;;;;;;;;5075849;28;20198;-66
2023/06/18 08:27:09;;;;;;;8.80;7.90;;;;;;;;;;5075859;28;20186;-66
2023/06/18 08:29:35;;;;;;;11.43;8.33;;;;;;;;;;5076574;28;20181;-66
2023/06/18 08:32:04;;;;;;;11.13;8.37;;;;;;;;;;5075836;28;20208;-67
2023/06/18 08:34:42;;;;;;;10.23;7.60;;;;;;;;;;5074519;28;20644;-66
2023/06/18 08:37:08;;;;;;;9.27;8.00;;;;;;;;;;5075804;28;20162;-67
2023/06/18 08:39:34;;;;;;;10.67;8.00;;;;;;;;;;5075442;28;20182;-67
2023/06/18 08:42:00;;;;;;;9.17;8.17;;;;;;;;;;5074220;28;20537;-68
2023/06/18 08:44:30;;;;;;;10.60;8.30;;;;;;;;;;5073888;28;20262;-66
2023/06/18 08:47:03;;;;;;;11.63;7.90;;;;;;;;;;5074039;28;20289;-67
2023/06/18 08:49:30;;;;;;;15.10;8.03;;;;;;;;;;5075396;28;20185;-67
2023/06/18 08:51:57;;;;;;;9.53;8.20;;;;;;;;;;5073959;28;20563;-67
2023/06/18 08:54:27;;;;;;;9.20;8.17;;;;;;;;;;5073846;28;20232;-67
2023/06/18 08:56:56;;;;;;;13.93;9.30;;;;;;;;;;5074271;28;20554;-67
2023/06/18 08:59:22;;;;;;;18.13;10.77;;;;;;;;;;5073908;28;20174;-66
2023/06/18 09:01:48;;;;;;;12.97;9.60;;;;;;;;;;5075402;28;20208;-67
2023/06/18 09:04:15;;;;;;;16.50;9.00;;;;;;;;;;5074335;28;20205;-67
2023/06/18 09:06:41;;;;;;;11.00;7.97;;;;;;;;;;5076228;28;20178;-66
2023/06/18 09:09:07;;;;;;;9.43;8.43;;;;;;;;;;5076898;28;20257;-67
2023/06/18 09:11:34;;;;;;;22.37;8.63;;;;;;;;;;5076705;28;20256;-67
2023/06/18 09:14:00;;;;;;;12.80;7.87;;;;;;;;;;5076770;28;20200;-66
2023/06/18 09:16:26;;;;;;;8.53;7.47;;;;;;;;;;5073803;28;20181;-66
2023/06/18 09:18:52;;;;;;;10.50;7.37;;;;;;;;;;5073648;28;20200;-66
2023/06/18 09:21:38;;;;;;;8.83;7.60;;;;;;;;;;5075426;28;20185;-67
2023/06/18 09:24:07;;;;;;;10.53;7.43;;;;;;;;;;5075136;28;20243;-67
2023/06/18 09:26:34;;;;;;;11.17;7.43;;;;;;;;;;5074930;28;20231;-67
2023/06/18 09:29:07;;;;;;;8.37;7.07;;;;;;;;;;5074862;28;20257;-67
2023/06/18 09:31:34;;;;;;;12.87;8.23;;;;;;;;;;5074562;28;20204;-67
2023/06/18 09:34:11;;;;;;;13.10;7.83;;;;;;;;;;5074393;28;20560;-67
2023/06/18 09:36:39;;;;;;;12.80;8.17;;;;;;;;;;5073374;28;20196;-67
2023/06/18 09:39:13;;;;;;;11.77;7.37;;;;;;;;;;5074403;28;20204;-67
2023/06/18 09:41:40;;;;;;;14.13;8.50;;;;;;;;;;5074156;28;20171;-67
2023/06/18 09:44:07;;;;;;;15.87;8.57;;;;;;;;;;5072715;28;20213;-67
2023/06/18 09:46:33;;;;;;;11.37;8.03;;;;;;;;;;5072777;28;20178;-67
2023/06/18 09:49:00;;;;;;;10.07;8.07;;;;;;;;;;5074463;28;20177;-67
2023/06/18 09:51:26;;;;;;;10.77;8.17;;;;;;;;;;5072768;28;20209;-67
2023/06/18 09:53:56;;;;;;;8.90;7.77;;;;;;;;;;5072708;28;20558;-67
2023/06/18 09:56:22;;;;;;;9.30;8.30;;;;;;;;;;5074124;28;20181;-67
2023/06/18 09:58:49;;;;;;;11.47;8.50;;;;;;;;;;5074002;28;20169;-67
2023/06/18 10:01:20;;;;;;;12.23;7.87;;;;;;;;;;5073968;28;20192;-67
2023/06/18 10:03:46;;;;;;;14.20;8.30;;;;;;;;;;5074406;28;20303;-68
2023/06/18 10:06:19;;;;;;;9.90;8.13;;;;;;;;;;5072766;28;20189;-66
2023/06/18 10:08:46;;;;;;;10.57;8.23;;;;;;;;;;5073848;28;20181;-67
2023/06/18 10:11:13;;;;;;;8.90;7.90;;;;;;;;;;5072558;28;20247;-67
2023/06/18 10:13:47;;;;;;;9.93;8.17;;;;;;;;;;5072297;28;20263;-67
2023/06/18 10:16:14;;;;;;;8.97;7.60;;;;;;;;;;5073071;28;20202;-67
2023/06/18 10:18:45;;;;;;;14.80;8.70;;;;;;;;;;5073048;28;20602;-67
2023/06/18 10:21:12;;;;;;;10.43;7.33;;;;;;;;;;5074999;28;20257;-67
2023/06/18 10:23:38;;;;;;;7.55;6.90;;;;;;;;;;5073882;28;20202;-67
2023/06/18 10:26:04;;;;;;;7.75;6.97;;;;;;;;;;5072503;28;20215;-67
2023/06/18 10:28:30;;;;;;;9.55;7.75;;;;;;;;;;5074210;28;20178;-67
2023/06/18 10:30:56;;;;;;;9.70;7.72;;;;;;;;;;5073581;28;20288;-66
2023/06/18 10:33:23;;;;;;;8.67;7.87;;;;;;;;;;5073566;28;20236;-67
2023/06/18 10:35:50;;;;;;;16.13;8.13;;;;;;;;;;5072240;28;20173;-66
2023/06/18 10:38:16;;;;;;;29.45;8.10;;;;;;;;;;5073502;28;20170;-67
2023/06/18 10:40:42;;;;;;;8.27;7.40;;;;;;;;;;5072279;28;20247;-66
2023/06/18 10:43:09;;;;;;;9.03;7.73;;;;;;;;;;5073417;28;20631;-66
2023/06/18 10:45:35;;;;;;;8.13;7.43;;;;;;;;;;5074529;28;20162;-66
2023/06/18 10:48:23;;;;;;;9.80;6.28;;;;;;;;;;5074821;28;20174;-67
2023/06/18 10:51:07;;;;;;;11.00;6.70;;;;;;;;;;5076348;28;20639;-67
2023/06/18 10:53:33;;;;;;;8.07;7.30;;;;;;;;;;5074979;28;20292;-66
2023/06/18 10:55:59;;;;;;;8.32;6.90;;;;;;;;;;5074180;28;20654;-66
2023/06/18 10:58:32;;;;;;;10.40;7.40;;;;;;;;;;5073392;28;20632;-67
2023/06/18 11:00:58;;;;;;;8.60;7.13;;;;;;;;;;5073541;28;20572;-66
2023/06/18 11:03:32;;;;;;;13.75;7.55;;;;;;;;;;5072993;28;20197;-66
2023/06/18 11:06:00;;;;;;;8.30;7.60;;;;;;;;;;5073619;28;20240;-67
2023/06/18 11:08:30;;;;;;;10.35;6.93;;;;;;;;;;5073407;28;20635;-66
2023/06/18 11:11:03;;;;;;;9.90;6.93;;;;;;;;;;5073286;28;20209;-66
2023/06/18 11:13:34;;;;;;;8.43;6.72;;;;;;;;;;5073125;28;20189;-66
2023/06/18 11:16:06;;;;;;;7.82;7.00;;;;;;;;;;5074631;28;20265;-66
2023/06/18 11:18:33;;;;;;;8.55;7.40;;;;;;;;;;5073404;28;20308;-66
2023/06/18 11:20:59;;;;;;;8.18;7.35;;;;;;;;;;5073417;28;20260;-66
2023/06/18 11:23:26;;;;;;;7.68;6.93;;;;;;;;;;5072042;28;20247;-67
2023/06/18 11:25:53;;;;;;;7.72;6.93;;;;;;;;;;5073400;28;20256;-65
2023/06/18 11:28:20;;;;;;;12.63;7.38;;;;;;;;;;5074291;28;20174;-66
2023/06/18 11:30:51;;;;;;;8.88;6.38;;;;;;;;;;5073887;28;20170;-66
2023/06/18 11:33:27;;;;;;;10.35;7.05;;;;;;;;;;5074299;28;20186;-67
2023/06/18 11:35:54;;;;;;;12.40;7.18;;;;;;;;;;5076732;28;20198;-66
2023/06/18 11:38:21;;;;;;;9.15;7.35;;;;;;;;;;5081847;28;20170;-67
2023/06/18 11:40:50;;;;;;;9.65;6.85;;;;;;;;;;5079914;28;20508;-66
2023/06/18 11:43:17;;;;;;;7.40;6.70;;;;;;;;;;5078796;28;20590;-68
2023/06/18 11:45:53;;;;;;;11.90;7.45;;;;;;;;;;5080691;28;20178;-67
2023/06/18 11:48:22;;;;;;;9.18;7.50;;;;;;;;;;5079155;28;20213;-66
2023/06/18 11:50:53;;;;;;;9.07;6.53;;;;;;;;;;5075856;28;20698;-66
2023/06/18 11:53:20;;;;;;;13.93;7.75;;;;;;;;;;5074733;28;20197;-66
2023/06/18 11:55:45;;;;;;;7.53;6.82;;;;;;;;;;5074553;28;20173;-66
2023/06/18 11:58:12;;;;;;;11.50;7.00;;;;;;;;;;5075964;28;20319;-66
2023/06/18 12:00:38;;;;;;;15.65;7.53;;;;;;;;;;5076349;28;20240;-66
2023/06/18 12:03:04;;;;;;;8.52;6.95;;;;;;;;;;5075410;28;20185;-67
2023/06/18 12:05:33;;;;;;;11.25;7.35;;;;;;;;;;5076072;28;20777;-66
2023/06/18 12:08:07;;;;;;;12.38;7.18;;;;;;;;;;5080967;28;20174;-66
2023/06/18 12:10:34;;;;;;;8.70;7.40;;;;;;;;;;5082294;28;20180;-66
2023/06/18 12:13:07;;;;;;;9.45;7.13;;;;;;;;;;5084885;28;20189;-66
2023/06/18 12:15:33;;;;;;;9.38;7.85;;;;;;;;;;5077915;28;20651;-67
2023/06/18 12:17:59;;;;;;;7.70;6.72;;;;;;;;;;5075228;28;20178;-66
2023/06/18 12:20:28;;;;;;;9.73;6.60;;;;;;;;;;5075087;28;20177;-66
2023/06/18 12:22:54;;;;;;;8.77;7.07;;;;;;;;;;5076705;28;20185;-66
2023/06/18 12:25:22;;;;;;;8.32;6.75;;;;;;;;;;5075448;28;20182;-67
2023/06/18 12:27:48;;;;;;;11.55;7.18;;;;;;;;;;5076349;28;20177;-66
2023/06/18 12:30:14;;;;;;;10.10;7.68;;;;;;;;;;5076192;28;20186;-67
2023/06/18 12:32:40;;;;;;;9.50;7.05;;;;;;;;;;5076443;28;20281;-66
2023/06/18 12:35:16;;;;;;;9.55;7.25;;;;;;;;;;5076555;28;20174;-67
2023/06/18 12:37:42;;;;;;;7.53;6.68;;;;;;;;;;5075999;28;20184;-67
2023/06/18 12:40:10;;;;;;;8.32;7.00;;;;;;;;;;5076093;28;20201;-67
2023/06/18 12:42:36;;;;;;;7.22;6.47;;;;;;;;;;5074866;28;20177;-67
2023/06/18 12:45:02;;;;;;;7.85;6.43;;;;;;;;;;5075985;28;20186;-67
2023/06/18 12:47:28;;;;;;;8.55;6.88;;;;;;;;;;5074963;28;20269;-67
2023/06/18 12:49:54;;;;;;;6.80;6.18;;;;;;;;;;5075745;28;20174;-67
2023/06/18 12:52:21;;;;;;;6.70;6.05;;;;;;;;;;5074344;28;20256;-67
2023/06/18 12:54:47;;;;;;;8.10;6.85;;;;;;;;;;5075804;28;20216;-67
2023/06/18 12:57:17;;;;;;;8.60;6.20;;;;;;;;;;5074522;28;20186;-67
2023/06/18 12:59:50;;;;;;;7.50;6.30;;;;;;;;;;5075626;28;20711;-67
2023/06/18 13:02:16;;;;;;;8.77;6.38;;;;;;;;;;5075351;28;20189;-67
2023/06/18 13:04:44;;;;;;;10.88;6.15;;;;;;;;;;5074097;28;20690;-67
2023/06/18 13:07:10;;;;;;;11.15;6.13;;;;;;;;;;5074369;28;20178;-67
2023/06/18 13:09:36;;;;;;;7.43;6.10;;;;;;;;;;5075597;28;20289;-68
2023/06/18 13:12:02;;;;;;;6.85;6.18;;;;;;;;;;5075160;28;20228;-67
2023/06/18 13:14:28;;;;;;;7.15;6.45;;;;;;;;;;5073806;28;20311;-67
2023/06/18 13:16:54;;;;;;;6.80;6.20;;;;;;;;;;5074583;28;20198;-67
2023/06/18 13:19:20;;;;;;;9.15;6.18;;;;;;;;;;5075395;28;20174;-67
2023/06/18 13:21:46;;;;;;;8.95;6.70;;;;;;;;;;5074210;28;20269;-67
2023/06/18 13:24:12;;;;;;;9.98;6.40;;;;;;;;;;5074949;28;20256;-67
2023/06/18 13:26:38;;;;;;;8.25;7.45;;;;;;;;;;5073746;28;20231;-67
2023/06/18 13:29:07;;;;;;;8.50;7.20;;;;;;;;;;5074601;28;20184;-67
2023/06/18 13:31:33;;;;;;;7.47;6.80;;;;;;;;;;5073213;28;20263;-67
2023/06/18 13:33:59;;;;;;;7.88;7.03;;;;;;;;;;5074345;28;20608;-67
2023/06/18 13:36:25;;;;;;;11.68;7.07;;;;;;;;;;5074338;28;20703;-67
2023/06/18 13:38:51;;;;;;;9.50;7.05;;;;;;;;;;5074428;28;20215;-65
2023/06/18 13:41:18;;;;;;;10.05;7.80;;;;;;;;;;5074566;28;20178;-65
2023/06/18 13:43:44;;;;;;;10.10;8.13;;;;;;;;;;5072931;28;20217;-66
2023/06/18 13:46:10;;;;;;;11.90;7.20;;;;;;;;;;5074615;28;20189;-66
2023/06/18 13:48:36;;;;;;;10.37;9.30;;;;;;;;;;5072939;28;20654;-66
2023/06/18 13:51:02;;;;;;;7.57;6.80;;;;;;;;;;5074253;28;20197;-66
2023/06/18 13:53:28;;;;;;;9.20;8.20;;;;;;;;;;5074288;28;20197;-67
2023/06/18 13:55:54;;;;;;;10.67;8.30;;;;;;;;;;5074279;28;20178;-66
2023/06/18 13:58:20;;;;;;;12.30;8.37;;;;;;;;;;5073031;28;20177;-65
2023/06/18 14:00:46;;;;;;;9.10;8.07;;;;;;;;;;5074758;28;20615;-66
2023/06/18 14:03:12;;;;;;;8.43;7.30;;;;;;;;;;5074860;28;20255;-66
2023/06/18 14:05:38;;;;;;;9.38;6.97;;;;;;;;;;5074862;28;20205;-66
2023/06/18 14:08:04;;;;;;;7.87;7.10;;;;;;;;;;5074618;28;20165;-66
2023/06/18 14:10:30;;;;;;;7.80;7.07;;;;;;;;;;5074591;28;20174;-67
2023/06/18 14:12:56;;;;;;;10.67;7.00;;;;;;;;;;5074051;28;20300;-66
2023/06/18 14:15:22;;;;;;;9.50;7.00;;;;;;;;;;5073801;28;20189;-65
2023/06/18 14:17:48;;;;;;;10.83;7.77;;;;;;;;;;5072533;28;20181;-66
2023/06/18 14:20:16;;;;;;;9.43;7.77;;;;;;;;;;5073646;28;20219;-67
2023/06/18 14:22:42;;;;;;;7.87;7.07;;;;;;;;;;5072547;28;20232;-66
2023/06/18 14:25:08;;;;;;;11.27;7.23;;;;;;;;;;5074940;28;20590;-67
2023/06/18 14:27:34;;;;;;;9.10;7.93;;;;;;;;;;5072512;28;20580;-66
2023/06/18 14:30:00;;;;;;;11.10;8.67;;;;;;;;;;5076390;28;20180;-68